createdAt,value
2018-07-13T00:00:09.771Z,19.54
2018-07-13T00:02:38.718Z,19.43
2018-07-13T00:05:07.628Z,19.51
2018-07-13T00:07:36.756Z,19.53
2018-07-13T00:10:05.704Z,19.45
2018-07-13T00:12:34.779Z,19.43
2018-07-13T00:15:07.413Z,19.42
2018-07-13T00:17:36.323Z,19.31
2018-07-13T00:20:05.666Z,19.19
2018-07-13T00:22:34.811Z,19.26
2018-07-13T00:25:03.859Z,19.29
2018-07-13T00:27:32.769Z,19.28
2018-07-13T00:30:01.790Z,19.34
2018-07-13T00:32:30.823Z,19.25
2018-07-13T00:35:00.326Z,19.25
2018-07-13T00:37:29.231Z,19.14
2018-07-13T00:39:58.134Z,19.25
2018-07-13T00:42:27.056Z,19.23
2018-07-13T00:44:55.958Z,19.15
2018-07-13T00:47:24.922Z,19.17
2018-07-13T00:49:53.939Z,19.14
2018-07-13T00:52:22.830Z,19.16
2018-07-13T00:54:51.781Z,19.16
2018-07-13T00:57:20.712Z,19.11
2018-07-13T00:59:49.624Z,19.08
2018-07-13T01:02:18.530Z,19.07
2018-07-13T01:04:47.415Z,18.91
2018-07-13T01:07:16.351Z,18.90
2018-07-13T01:09:45.255Z,18.86
2018-07-13T01:12:14.224Z,18.87
2018-07-13T01:14:43.119Z,18.78
2018-07-13T01:17:12.015Z,18.77
2018-07-13T01:19:40.898Z,18.76
2018-07-13T01:22:09.842Z,18.73
2018-07-13T01:24:38.756Z,18.77
2018-07-13T01:27:07.677Z,18.74
2018-07-13T01:29:36.603Z,18.76
2018-07-13T01:32:05.586Z,18.70
2018-07-13T01:34:34.728Z,18.72
2018-07-13T01:37:03.644Z,18.62
2018-07-13T01:39:32.559Z,18.68
2018-07-13T01:42:01.660Z,18.70
2018-07-13T01:44:31.191Z,18.65
2018-07-13T01:47:00.302Z,18.57
2018-07-13T01:49:29.479Z,18.61
2018-07-13T01:51:58.407Z,18.52
2018-07-13T01:54:27.299Z,18.43
2018-07-13T01:56:56.249Z,18.41
2018-07-13T01:59:25.197Z,18.39
2018-07-13T02:01:54.143Z,18.42
2018-07-13T02:04:23.031Z,18.43
2018-07-13T02:06:51.962Z,18.42
2018-07-13T02:09:21.366Z,18.37
2018-07-13T02:11:50.263Z,18.37
2018-07-13T02:14:19.871Z,18.32
2018-07-13T02:16:48.786Z,18.31
2018-07-13T02:19:17.729Z,18.30
2018-07-13T02:21:46.635Z,18.26
2018-07-13T02:24:15.531Z,18.25
2018-07-13T02:26:44.434Z,18.20
2018-07-13T02:29:13.309Z,18.12
2018-07-13T02:31:42.230Z,18.13
2018-07-13T02:34:11.221Z,18.08
2018-07-13T02:36:40.121Z,18.06
2018-07-13T02:39:09.904Z,18.06
2018-07-13T02:41:38.953Z,18.07
2018-07-13T02:44:07.915Z,18.05
2018-07-13T02:46:36.913Z,17.99
2018-07-13T02:49:05.818Z,18.04
2018-07-13T02:51:34.696Z,17.97
2018-07-13T02:54:03.621Z,17.99
2018-07-13T02:56:32.505Z,17.91
2018-07-13T02:59:01.427Z,17.91
2018-07-13T03:01:30.377Z,17.93
2018-07-13T03:03:59.299Z,17.90
2018-07-13T03:06:28.657Z,17.91
2018-07-13T03:08:57.750Z,17.88
2018-07-13T03:11:26.866Z,17.84
2018-07-13T03:13:56.055Z,17.82
2018-07-13T03:16:24.974Z,17.82
2018-07-13T03:18:53.950Z,17.81
2018-07-13T03:21:22.827Z,17.74
2018-07-13T03:23:51.730Z,17.72
2018-07-13T03:26:20.676Z,17.71
2018-07-13T03:28:49.902Z,17.70
2018-07-13T03:31:20.878Z,17.72
2018-07-13T03:33:49.801Z,17.67
2018-07-13T03:36:18.839Z,17.68
2018-07-13T03:38:47.767Z,17.69
2018-07-13T03:41:16.717Z,17.64
2018-07-13T03:43:45.791Z,17.65
2018-07-13T03:46:14.875Z,17.65
2018-07-13T03:48:43.785Z,17.66
2018-07-13T03:51:12.702Z,17.68
2018-07-13T03:53:41.595Z,17.69
2018-07-13T03:56:10.501Z,17.63
2018-07-13T03:58:39.417Z,17.62
2018-07-13T04:01:08.302Z,17.54
2018-07-13T04:03:37.205Z,17.58
2018-07-13T04:06:06.117Z,17.60
2018-07-13T04:08:35.020Z,17.62
2018-07-13T04:11:04.005Z,17.65
2018-07-13T04:13:32.895Z,17.64
2018-07-13T04:16:01.812Z,17.63
2018-07-13T04:18:34.659Z,17.67
2018-07-13T04:21:03.554Z,17.62
2018-07-13T04:23:32.490Z,17.61
2018-07-13T04:26:01.413Z,17.65
2018-07-13T04:28:32.689Z,17.56
2018-07-13T04:31:01.583Z,17.60
2018-07-13T04:33:30.482Z,17.65
2018-07-13T04:35:59.392Z,17.69
2018-07-13T04:38:28.299Z,17.68
2018-07-13T04:40:57.235Z,17.67
2018-07-13T04:43:26.112Z,17.65
2018-07-13T04:45:55.035Z,17.65
2018-07-13T04:48:23.954Z,17.66
2018-07-13T04:50:52.873Z,17.68
2018-07-13T04:53:21.808Z,17.66
2018-07-13T04:55:50.755Z,17.66
2018-07-13T04:58:19.699Z,17.66
2018-07-13T05:00:48.615Z,17.56
2018-07-13T05:03:17.526Z,17.62
2018-07-13T05:05:46.451Z,17.64
2018-07-13T05:08:16.168Z,17.65
2018-07-13T05:10:45.118Z,17.71
2018-07-13T05:13:14.033Z,17.74
2018-07-13T05:15:42.969Z,17.77
2018-07-13T05:18:12.053Z,17.77
2018-07-13T05:20:41.022Z,17.74
2018-07-13T05:23:09.934Z,17.83
2018-07-13T05:25:38.884Z,17.84
2018-07-13T05:28:07.763Z,17.81
2018-07-13T05:30:36.707Z,17.87
2018-07-13T05:33:06.270Z,17.84
2018-07-13T05:35:35.181Z,17.91
2018-07-13T05:38:04.120Z,17.94
2018-07-13T05:40:33.030Z,17.87
2018-07-13T05:43:01.957Z,17.87
2018-07-13T05:45:31.208Z,17.80
2018-07-13T05:48:00.119Z,17.86
2018-07-13T05:50:29.064Z,18.02
2018-07-13T05:52:57.980Z,18.08
2018-07-13T05:55:27.168Z,17.97
2018-07-13T05:57:56.131Z,18.07
2018-07-13T06:00:25.313Z,18.11
2018-07-13T06:02:54.432Z,18.23
2018-07-13T06:05:23.368Z,18.27
2018-07-13T06:07:52.349Z,18.34
2018-07-13T06:10:21.276Z,18.25
2018-07-13T06:12:50.725Z,18.09
2018-07-13T06:15:19.684Z,18.22
2018-07-13T06:17:48.713Z,18.16
2018-07-13T06:20:17.694Z,18.13
2018-07-13T06:22:46.564Z,18.26
2018-07-13T06:25:15.502Z,18.28
2018-07-13T06:27:46.422Z,18.18
2018-07-13T06:30:15.770Z,18.16
2018-07-13T06:32:44.658Z,18.18
2018-07-13T06:35:13.613Z,18.18
2018-07-13T06:37:42.529Z,18.43
2018-07-13T06:40:11.460Z,18.48
2018-07-13T06:42:40.395Z,18.65
2018-07-13T06:45:09.271Z,18.64
2018-07-13T06:47:38.238Z,18.59
2018-07-13T06:50:07.472Z,18.73
2018-07-13T06:52:36.363Z,18.92
2018-07-13T06:55:05.290Z,19.03
2018-07-13T06:57:45.691Z,19.17
2018-07-13T07:01:20.197Z,19.22
2018-07-13T07:04:24.455Z,19.12
2018-07-13T07:06:54.176Z,19.17
2018-07-13T07:09:23.562Z,19.13
2018-07-13T07:13:05.094Z,19.04
2018-07-13T07:15:34.650Z,19.10
2018-07-13T07:18:03.547Z,19.06
2018-07-13T07:20:32.575Z,19.19
2018-07-13T07:23:01.539Z,19.23
2018-07-13T07:25:30.915Z,19.30
2018-07-13T07:27:59.832Z,19.36
2018-07-13T07:30:28.790Z,19.24
2018-07-13T07:32:57.701Z,19.24
2018-07-13T07:35:26.605Z,19.35
2018-07-13T07:37:55.541Z,19.33
2018-07-13T07:40:24.710Z,19.37
2018-07-13T07:42:53.586Z,19.40
2018-07-13T07:45:22.490Z,19.33
2018-07-13T07:47:51.437Z,19.41
2018-07-13T07:50:20.373Z,19.42
2018-07-13T07:52:49.317Z,19.43
2018-07-13T07:55:18.210Z,19.53
2018-07-13T07:57:47.135Z,19.53
2018-07-13T08:00:16.061Z,19.43
2018-07-13T08:02:44.989Z,19.44
2018-07-13T08:05:13.912Z,19.37
2018-07-13T08:07:42.884Z,19.46
2018-07-13T08:10:11.812Z,19.53
2018-07-13T08:12:40.734Z,19.58
2018-07-13T08:15:09.627Z,19.55
2018-07-13T08:17:38.507Z,19.63
2018-07-13T08:20:07.420Z,19.73
2018-07-13T08:22:41.623Z,19.84
2018-07-13T08:25:13.076Z,19.95
2018-07-13T08:27:45.830Z,19.91
2018-07-13T08:30:22.490Z,19.95
2018-07-13T08:32:51.412Z,19.98
2018-07-13T08:35:20.317Z,19.96
2018-07-13T08:37:49.222Z,19.93
2018-07-13T08:40:18.123Z,20.02
2018-07-13T08:42:47.033Z,20.06
2018-07-13T08:45:15.956Z,20.05
2018-07-13T08:47:44.964Z,20.10
2018-07-13T08:50:13.853Z,20.12
2018-07-13T08:52:43.000Z,20.19
2018-07-13T08:55:15.310Z,20.20
2018-07-13T08:57:45.961Z,20.23
2018-07-13T09:00:14.947Z,20.25
2018-07-13T09:02:43.883Z,20.21
2018-07-13T09:05:12.798Z,20.29
2018-07-13T09:07:42.732Z,20.30
2018-07-13T09:10:12.658Z,20.27
2018-07-13T09:12:42.329Z,20.33
2018-07-13T09:15:13.046Z,20.47
2018-07-13T09:17:42.200Z,20.56
2018-07-13T09:20:12.409Z,20.69
2018-07-13T09:22:41.411Z,20.76
2018-07-13T09:25:11.097Z,20.75
2018-07-13T09:27:40.617Z,20.83
2018-07-13T09:30:10.603Z,20.90
2018-07-13T09:32:39.532Z,20.93
2018-07-13T09:35:08.849Z,21.00
2018-07-13T09:37:37.807Z,21.14
2018-07-13T09:40:06.975Z,21.05
2018-07-13T09:42:36.310Z,21.08
2018-07-13T09:45:05.255Z,21.11
2018-07-13T09:47:34.805Z,21.10
2018-07-13T09:50:03.780Z,21.19
2018-07-13T09:52:32.677Z,21.15
2018-07-13T09:55:01.688Z,21.15
2018-07-13T09:57:30.657Z,21.25
2018-07-13T09:59:59.701Z,21.29
2018-07-13T10:02:28.609Z,21.38
2018-07-13T10:04:57.820Z,21.46
2018-07-13T10:07:27.137Z,21.49
2018-07-13T10:09:56.089Z,21.58
2018-07-13T10:12:25.000Z,21.58
2018-07-13T10:14:53.914Z,21.54
2018-07-13T10:17:22.839Z,21.67
2018-07-13T10:19:51.755Z,21.75
2018-07-13T10:22:23.825Z,21.76
2018-07-13T10:24:53.857Z,21.82
2018-07-13T10:27:23.188Z,21.82
2018-07-13T10:29:54.205Z,21.84
2018-07-13T10:32:23.262Z,21.96
2018-07-13T10:34:52.501Z,22.03
2018-07-13T10:37:21.458Z,22.02
2018-07-13T10:39:50.442Z,22.23
2018-07-13T10:42:19.331Z,22.33
2018-07-13T10:44:48.713Z,22.30
2018-07-13T10:47:17.677Z,22.46
2018-07-13T10:49:46.608Z,22.43
2018-07-13T10:52:15.496Z,22.29
2018-07-13T10:54:44.401Z,22.30
2018-07-13T10:57:13.343Z,22.45
2018-07-13T10:59:42.295Z,22.50
2018-07-13T11:02:11.181Z,22.54
2018-07-13T11:04:40.261Z,22.62
2018-07-13T11:07:09.187Z,22.62
2018-07-13T11:09:38.496Z,22.64
2018-07-13T11:12:07.498Z,22.74
2018-07-13T11:14:36.463Z,22.85
2018-07-13T11:17:05.457Z,22.88
2018-07-13T11:19:34.372Z,23.08
2018-07-13T11:22:03.322Z,23.18
2018-07-13T11:24:32.287Z,23.15
2018-07-13T11:27:01.286Z,23.13
2018-07-13T11:29:30.192Z,23.03
2018-07-13T11:31:59.438Z,23.06
2018-07-13T11:34:28.393Z,23.13
2018-07-13T11:36:57.362Z,23.12
2018-07-13T11:39:26.331Z,23.33
2018-07-13T11:41:55.293Z,23.50
2018-07-13T11:44:24.262Z,23.51
2018-07-13T11:46:53.252Z,23.52
2018-07-13T11:49:22.615Z,23.53
2018-07-13T11:51:51.705Z,23.59
2018-07-13T11:54:20.738Z,23.64
2018-07-13T11:56:49.845Z,23.69
2018-07-13T11:59:18.868Z,23.93
2018-07-13T12:01:47.917Z,24.05
2018-07-13T12:04:16.748Z,23.93
2018-07-13T12:06:45.687Z,24.11
2018-07-13T12:09:14.616Z,24.10
2018-07-13T12:11:44.248Z,24.18
2018-07-13T12:14:13.708Z,24.21
2018-07-13T12:16:42.974Z,24.13
2018-07-13T12:19:12.241Z,23.99
2018-07-13T12:21:41.151Z,24.03
2018-07-13T12:24:10.062Z,24.19
2018-07-13T12:26:38.992Z,24.23
2018-07-13T12:29:07.965Z,24.47
2018-07-13T12:31:36.873Z,24.55
2018-07-13T12:34:05.796Z,24.62
2018-07-13T12:36:34.694Z,24.58
2018-07-13T12:39:03.871Z,24.75
2018-07-13T12:41:32.792Z,24.70
2018-07-13T12:44:01.685Z,24.76
2018-07-13T12:46:30.588Z,24.74
2018-07-13T12:48:59.534Z,24.76
2018-07-13T12:51:28.498Z,24.82
2018-07-13T12:53:57.490Z,24.86
2018-07-13T12:56:26.318Z,25.00
2018-07-13T12:58:55.236Z,25.11
2018-07-13T13:01:24.205Z,25.18
2018-07-13T13:03:53.174Z,25.06
2018-07-13T13:06:22.059Z,24.97
2018-07-13T13:08:51.103Z,25.07
2018-07-13T13:11:20.028Z,25.04
2018-07-13T13:13:48.967Z,25.49
2018-07-13T13:16:17.847Z,25.47
2018-07-13T13:18:46.768Z,25.47
2018-07-13T13:21:15.676Z,25.47
2018-07-13T13:23:45.634Z,25.45
2018-07-13T13:26:14.511Z,25.69
2018-07-13T13:28:43.420Z,25.78
2018-07-13T13:31:12.454Z,25.58
2018-07-13T13:33:41.361Z,25.43
2018-07-13T13:36:10.292Z,25.53
2018-07-13T13:38:39.201Z,25.78
2018-07-13T13:41:08.160Z,25.64
2018-07-13T13:43:37.042Z,25.48
2018-07-13T13:46:05.942Z,25.59
2018-07-13T13:48:34.827Z,25.62
2018-07-13T13:51:03.739Z,25.75
2018-07-13T13:53:32.735Z,25.66
2018-07-13T13:56:01.647Z,25.59
2018-07-13T13:58:30.542Z,25.53
2018-07-13T14:00:59.489Z,25.79
2018-07-13T14:03:28.401Z,25.76
2018-07-13T14:05:57.315Z,25.53
2018-07-13T14:08:26.296Z,25.60
2018-07-13T14:10:56.208Z,25.74
2018-07-13T14:13:25.140Z,25.67
2018-07-13T14:15:54.026Z,25.49
2018-07-13T14:18:23.260Z,25.62
2018-07-13T14:20:52.184Z,25.74
2018-07-13T14:23:24.848Z,25.74
2018-07-13T14:25:57.284Z,25.83
2018-07-13T14:28:26.413Z,25.73
2018-07-13T14:30:55.270Z,25.81
2018-07-13T14:33:24.212Z,25.82
2018-07-13T14:35:53.215Z,25.65
2018-07-13T14:38:22.113Z,25.58
2018-07-13T14:40:51.070Z,25.67
2018-07-13T14:43:19.992Z,25.66
2018-07-13T14:45:48.872Z,25.56
2018-07-13T14:48:18.128Z,25.86
2018-07-13T14:50:47.077Z,25.90
2018-07-13T14:53:15.997Z,25.76
2018-07-13T14:55:44.905Z,25.64
2018-07-13T14:58:13.814Z,25.61
2018-07-13T15:00:42.714Z,25.67
2018-07-13T15:03:11.650Z,25.85
2018-07-13T15:05:40.577Z,25.92
2018-07-13T15:08:09.473Z,26.04
2018-07-13T15:10:38.586Z,25.95
2018-07-13T15:13:07.446Z,25.94
2018-07-13T15:15:36.445Z,25.90
2018-07-13T15:18:05.835Z,25.90
2018-07-13T15:20:34.809Z,25.93
2018-07-13T15:23:03.985Z,25.89
2018-07-13T15:25:32.972Z,25.88
2018-07-13T15:28:01.990Z,25.91
2018-07-13T15:30:30.925Z,25.83
2018-07-13T15:32:59.826Z,25.72
2018-07-13T15:35:28.766Z,25.79
2018-07-13T15:37:57.705Z,25.82
2018-07-13T15:40:26.653Z,25.92
2018-07-13T15:42:55.611Z,25.84
2018-07-13T15:45:24.521Z,25.70
2018-07-13T15:47:53.458Z,25.65
2018-07-13T15:50:22.363Z,25.63
2018-07-13T15:52:51.387Z,25.54
2018-07-13T15:55:20.329Z,25.48
2018-07-13T15:57:49.232Z,25.41
2018-07-13T16:00:18.135Z,25.52
2018-07-13T16:02:47.016Z,25.55
2018-07-13T16:05:15.974Z,25.62
2018-07-13T16:07:44.868Z,25.62
2018-07-13T16:10:13.793Z,25.67
2018-07-13T16:12:42.666Z,25.67
2018-07-13T16:15:11.585Z,25.68
2018-07-13T16:17:44.282Z,25.66
2018-07-13T16:20:13.176Z,25.74
2018-07-13T16:22:42.275Z,25.72
2018-07-13T16:25:16.992Z,25.73
2018-07-13T16:27:45.964Z,25.75
2018-07-13T16:30:14.933Z,25.83
2018-07-13T16:32:43.819Z,25.79
2018-07-13T16:35:12.806Z,25.80
2018-07-13T16:37:41.771Z,25.80
2018-07-13T16:40:10.690Z,25.74
2018-07-13T16:42:39.629Z,25.77
2018-07-13T16:45:08.570Z,25.79
2018-07-13T16:47:37.437Z,25.69
2018-07-13T16:50:06.355Z,25.54
2018-07-13T16:52:35.334Z,25.58
2018-07-13T16:55:04.256Z,25.63
2018-07-13T16:57:33.193Z,25.64
2018-07-13T17:00:02.127Z,25.66
2018-07-13T17:02:31.049Z,25.75
2018-07-13T17:04:59.963Z,25.77
2018-07-13T17:07:28.890Z,25.72
2018-07-13T17:09:57.807Z,25.69
2018-07-13T17:12:26.735Z,25.73
2018-07-13T17:14:55.668Z,25.72
2018-07-13T17:17:24.563Z,25.70
2018-07-13T17:19:53.611Z,25.58
2018-07-13T17:22:22.499Z,25.55
2018-07-13T17:24:51.421Z,25.53
2018-07-13T17:27:20.351Z,25.53
2018-07-13T17:29:49.255Z,25.51
2018-07-13T17:32:18.191Z,25.49
2018-07-13T17:34:47.266Z,25.45
2018-07-13T17:37:16.205Z,25.46
2018-07-13T17:39:45.260Z,25.46
2018-07-13T17:42:14.167Z,25.42
2018-07-13T17:44:43.079Z,25.41
2018-07-13T17:47:11.988Z,25.37
2018-07-13T17:49:40.919Z,25.40
2018-07-13T17:52:09.813Z,25.37
2018-07-13T17:54:42.543Z,25.38
2018-07-13T17:57:11.460Z,25.40
2018-07-13T17:59:40.403Z,25.39
2018-07-13T18:02:09.282Z,25.35
2018-07-13T18:04:38.193Z,25.24
2018-07-13T18:07:07.130Z,25.19
2018-07-13T18:09:36.042Z,25.16
2018-07-13T18:12:04.956Z,25.18
2018-07-13T18:14:33.864Z,25.17
2018-07-13T18:17:02.758Z,25.23
2018-07-13T18:19:31.664Z,25.23
2018-07-13T18:22:00.585Z,25.14
2018-07-13T18:24:29.577Z,25.04
2018-07-13T18:26:58.489Z,25.07
2018-07-13T18:29:27.390Z,25.05
2018-07-13T18:31:56.266Z,24.92
2018-07-13T18:34:25.172Z,24.89
2018-07-13T18:36:54.127Z,24.91
2018-07-13T18:39:22.994Z,24.90
2018-07-13T18:41:51.933Z,24.79
2018-07-13T18:44:20.844Z,24.74
2018-07-13T18:46:49.764Z,24.68
2018-07-13T18:49:18.657Z,24.64
2018-07-13T18:51:47.686Z,24.61
2018-07-13T18:54:16.685Z,24.56
2018-07-13T18:56:45.668Z,24.50
2018-07-13T18:59:14.604Z,24.44
2018-07-13T19:01:43.475Z,24.36
2018-07-13T19:04:12.417Z,24.32
2018-07-13T19:06:41.353Z,24.25
2018-07-13T19:09:10.562Z,24.19
2018-07-13T19:11:39.743Z,24.15
2018-07-13T19:14:08.695Z,24.08
2018-07-13T19:16:38.286Z,24.00
2018-07-13T19:19:07.234Z,23.96
2018-07-13T19:21:36.279Z,23.90
2018-07-13T19:24:05.179Z,23.83
2018-07-13T19:26:34.084Z,23.79
2018-07-13T19:29:02.989Z,23.74
2018-07-13T19:31:31.910Z,23.68
2018-07-13T19:34:00.822Z,23.61
2018-07-13T19:36:32.973Z,23.60
2018-07-13T19:39:01.897Z,23.56
2018-07-13T19:41:30.827Z,23.51
2018-07-13T19:43:59.731Z,23.41
2018-07-13T19:46:28.687Z,23.37
2018-07-13T19:48:57.563Z,23.34
2018-07-13T19:51:26.487Z,23.31
2018-07-13T19:53:55.402Z,23.28
2018-07-13T19:56:24.410Z,23.23
2018-07-13T19:58:53.370Z,23.25
2018-07-13T20:01:22.346Z,23.19
2018-07-13T20:03:51.271Z,23.12
2018-07-13T20:06:20.143Z,23.11
2018-07-13T20:08:49.043Z,23.09
2018-07-13T20:11:18.214Z,23.04
2018-07-13T20:13:50.295Z,23.01
2018-07-13T20:16:19.209Z,22.95
2018-07-13T20:18:48.140Z,22.88
2018-07-13T20:21:17.027Z,22.85
2018-07-13T20:23:45.947Z,22.80
2018-07-13T20:26:15.367Z,22.77
2018-07-13T20:28:44.261Z,22.72
2018-07-13T20:31:13.195Z,22.69
2018-07-13T20:33:42.113Z,22.62
2018-07-13T20:36:11.325Z,22.54
2018-07-13T20:38:40.537Z,22.48
2018-07-13T20:41:09.508Z,22.48
2018-07-13T20:43:38.408Z,22.51
2018-07-13T20:46:07.283Z,22.51
2018-07-13T20:48:36.209Z,22.48
2018-07-13T20:51:05.287Z,22.51
2018-07-13T20:53:34.207Z,22.52
2018-07-13T20:56:03.128Z,22.54
2018-07-13T20:58:32.025Z,22.51
2018-07-13T21:01:00.940Z,22.50
2018-07-13T21:03:29.810Z,22.51
2018-07-13T21:05:58.802Z,22.54
2018-07-13T21:08:27.742Z,22.57
2018-07-13T21:10:56.644Z,22.54
2018-07-13T21:13:26.789Z,22.48
2018-07-13T21:15:55.914Z,22.49
2018-07-13T21:18:25.739Z,22.49
2018-07-13T21:20:54.713Z,22.47
2018-07-13T21:23:23.578Z,22.46
2018-07-13T21:25:52.628Z,22.47
2018-07-13T21:28:21.545Z,22.44
2018-07-13T21:30:50.535Z,22.33
2018-07-13T21:33:19.570Z,22.32
2018-07-13T21:35:48.474Z,22.30
2018-07-13T21:38:17.385Z,22.29
2018-07-13T21:40:46.469Z,22.29
2018-07-13T21:43:15.382Z,22.20
2018-07-13T21:45:44.411Z,22.20
2018-07-13T21:48:13.305Z,22.15
2018-07-13T21:50:42.553Z,22.14
2018-07-13T21:53:11.947Z,22.14
2018-07-13T21:55:40.843Z,22.10
2018-07-13T21:58:09.779Z,22.08
2018-07-13T22:00:38.699Z,22.06
2018-07-13T22:03:07.690Z,21.99
2018-07-13T22:05:36.809Z,22.01
2018-07-13T22:08:05.754Z,21.97
2018-07-13T22:10:34.629Z,21.95
2018-07-13T22:13:05.914Z,21.89
2018-07-13T22:15:35.727Z,21.77
2018-07-13T22:18:05.415Z,21.74
2018-07-13T22:20:34.321Z,21.72
2018-07-13T22:23:03.298Z,21.69
2018-07-13T22:25:32.220Z,21.66
2018-07-13T22:28:01.154Z,21.66
2018-07-13T22:30:30.259Z,21.64
2018-07-13T22:32:59.289Z,21.60
2018-07-13T22:35:28.275Z,21.56
2018-07-13T22:37:57.241Z,21.48
2018-07-13T22:40:26.158Z,21.53
2018-07-13T22:42:58.176Z,21.55
2018-07-13T22:45:27.067Z,21.50
2018-07-13T22:47:56.056Z,21.42
2018-07-13T22:50:24.937Z,21.34
2018-07-13T22:52:53.849Z,21.40
2018-07-13T22:55:22.753Z,21.30
2018-07-13T22:57:51.653Z,21.27
2018-07-13T23:00:20.569Z,21.26
2018-07-13T23:02:49.463Z,21.24
2018-07-13T23:05:18.377Z,21.19
2018-07-13T23:07:47.280Z,21.21
2018-07-13T23:10:16.224Z,21.16
2018-07-13T23:12:45.156Z,21.11
2018-07-13T23:15:14.075Z,21.05
2018-07-13T23:17:44.026Z,21.06
2018-07-13T23:20:12.972Z,21.03
2018-07-13T23:22:41.885Z,20.95
2018-07-13T23:25:10.908Z,21.00
2018-07-13T23:27:39.797Z,20.98
2018-07-13T23:30:08.886Z,20.93
2018-07-13T23:32:37.804Z,20.93
2018-07-13T23:35:06.704Z,20.83
2018-07-13T23:37:35.663Z,20.90
2018-07-13T23:40:04.735Z,20.83
2018-07-13T23:42:33.650Z,20.78
2018-07-13T23:45:02.570Z,20.68
2018-07-13T23:47:31.674Z,20.67
2018-07-13T23:50:00.561Z,20.65
2018-07-13T23:52:29.996Z,20.70
2018-07-13T23:54:58.913Z,20.66
2018-07-13T23:57:27.775Z,20.62
2018-07-13T23:59:56.686Z,20.57
